Ravenna, OH

12:51 AM EDT on May 23, 2017 (GMT -0400)
Ravenna

Weather History for KPOV - May, 2013

Change the Weather History Date:

Friday, May 3, 2013

  Actual Average (KCAK) Record (KCAK)
Temperature  
Mean Temperature 62 °F -  
Max Temperature 74 °F 63 °F 88 °F (2012)
Min Temperature 50 °F 42 °F 30 °F (1986)
Degree Days  
Heating Degree Days 3    
Growing Degree Days 12 (Base 50)    
Moisture  
Dew Point 36 °F    
Average Humidity 37    
Maximum Humidity 62    
Minimum Humidity 23    
Precipitation  
Precipitation 0.00 in - - ()
Sea Level Pressure  
Sea Level Pressure 30.18 in    
Wind  
Wind Speed 9 mph (ESE)    
Max Wind Speed 16 mph    
Max Gust Speed 28 mph    
Visibility 10 miles    
Events      
Averages and records for this station are not official NWS values.
T = Trace of Precipitation, MM = Missing Value Source: NWS Daily Summary

Daily Weather History Graph

Daily Weather History Graph

Search for Another Location

Airport or City:

Trip Planner

Search our weather history database for the weather conditions in past years. The results will help you decide how hot, cold, wet, or windy it might be!

Date:

Astronomy

May. 03, 2013 Rise Set
Actual Time 6:19 AM EDT 8:24 PM EDT
Civil Twilight 5:49 AM EDT 8:54 PM EDT
Nautical Twilight 5:12 AM EDT 9:32 PM EDT
Astronomical Twilight 4:32 AM EDT 10:12 PM EDT
Moon 2:47 AM EDT (5/3) 2:14 PM EDT (5/3)
Length of Visible Light 15h 05m
Length of Day
14h 04m
Last Quarter, 37% of the Moon is Illuminated
May 3
Last Quarter
May 9
New
May 18
First Quarter
May 25
Full
May 31
Last Quarter

Hourly Weather History & Observations

Time (EDT) Temp. Dew Point Humidity Pressure Visibility Wind Dir Wind Speed Gust Speed Precip Events Conditions
12:17 AM 61.2 °F 30.9 °F 32% 30.21 in 10.0 mi ESE 8.1 mph - N/A   Clear
12:36 AM 60.6 °F 31.3 °F 33% 30.20 in 10.0 mi ESE 6.9 mph - N/A   Clear
12:57 AM 60.8 °F 30.9 °F 32% 30.20 in 10.0 mi ESE 8.1 mph - N/A   Clear
1:17 AM 60.3 °F 31.3 °F 34% 30.20 in 10.0 mi ESE 9.2 mph - N/A   Clear
1:36 AM 59.4 °F 31.8 °F 35% 30.20 in 10.0 mi ESE 9.2 mph 16.1 mph N/A   Clear
1:57 AM 58.6 °F 32.2 °F 37% 30.20 in 10.0 mi East 8.1 mph - N/A   Clear
2:17 AM 57.9 °F 32.9 °F 39% 30.19 in 10.0 mi East 8.1 mph - N/A   Clear
2:37 AM 56.8 °F 33.3 °F 41% 30.19 in 10.0 mi East 8.1 mph - N/A   Clear
2:57 AM 56.8 °F 33.8 °F 42% 30.19 in 10.0 mi ESE 6.9 mph - N/A   Clear
3:17 AM 55.6 °F 34.5 °F 45% 30.19 in 10.0 mi East 8.1 mph - N/A   Clear
3:37 AM 55.4 °F 34.7 °F 46% 30.19 in 10.0 mi ESE 8.1 mph - N/A   Clear
3:56 AM 55.0 °F 35.1 °F 47% 30.18 in 10.0 mi ESE 6.9 mph - N/A   Clear
4:17 AM 54.9 °F 35.6 °F 48% 30.18 in 10.0 mi ESE 6.9 mph - N/A   Clear
4:37 AM 54.5 °F 35.8 °F 49% 30.19 in 10.0 mi ESE 6.9 mph - N/A   Clear
4:57 AM 52.9 °F 36.7 °F 54% 30.20 in 10.0 mi East 6.9 mph - N/A   Clear
5:17 AM 52.2 °F 36.9 °F 56% 30.20 in 10.0 mi ESE 5.8 mph - N/A   Clear
5:37 AM 52.0 °F 37.2 °F 57% 30.20 in 10.0 mi ESE 6.9 mph - N/A   Clear
5:56 AM 51.8 °F 37.4 °F 58% 30.20 in 10.0 mi East 4.6 mph - N/A   Clear
6:17 AM 51.4 °F 37.4 °F 59% 30.21 in 10.0 mi East 5.8 mph - N/A   Clear
6:37 AM 51.3 °F 37.8 °F 60% 30.21 in 10.0 mi East 4.6 mph - N/A   Clear
6:57 AM 50.9 °F 38.5 °F 62% 30.22 in 10.0 mi ESE 5.8 mph - N/A   Clear
7:17 AM 52.5 °F 38.5 °F 59% 30.22 in 10.0 mi East 5.8 mph - N/A   Clear
7:37 AM 53.8 °F 39.0 °F 57% 30.22 in 10.0 mi ESE 8.1 mph - N/A   Clear
7:57 AM 56.1 °F 38.5 °F 52% 30.23 in 10.0 mi ESE 9.2 mph - N/A   Clear
8:17 AM 57.0 °F 37.9 °F 49% 30.23 in 10.0 mi ESE 9.2 mph - N/A   Clear
8:37 AM 56.7 °F 37.8 °F 49% 30.23 in 10.0 mi ESE 8.1 mph - N/A   Clear
8:56 AM 59.0 °F 37.8 °F 45% 30.23 in 10.0 mi SE 10.4 mph - N/A   Clear
9:17 AM 60.1 °F 37.4 °F 43% 30.23 in 10.0 mi ESE 10.4 mph 18.4 mph N/A   Clear
9:35 AM 59.9 °F 37.0 °F 43% 30.23 in 10.0 mi ESE 8.1 mph - N/A   Clear
9:57 AM 61.5 °F 37.6 °F 41% 30.23 in 10.0 mi ESE 9.2 mph - N/A   Clear
10:17 AM 63.0 °F 36.5 °F 37% 30.22 in 10.0 mi ESE 6.9 mph - N/A   Clear
10:36 AM 65.5 °F 35.1 °F 32% 30.22 in 10.0 mi ESE 10.4 mph 17.3 mph N/A   Clear
10:57 AM 66.2 °F 32.5 °F 29% 30.22 in 10.0 mi SE 11.5 mph - N/A   Clear
11:17 AM 66.6 °F 32.5 °F 28% 30.22 in 10.0 mi SE 10.4 mph 16.1 mph N/A   Clear
11:36 AM 68.2 °F 32.5 °F 27% 30.22 in 10.0 mi SE 10.4 mph 18.4 mph N/A   Clear
11:57 AM 68.2 °F 32.4 °F 26% 30.22 in 10.0 mi SE 13.8 mph 20.7 mph N/A   Clear
12:17 PM 69.3 °F 32.0 °F 25% 30.20 in 10.0 mi SE 9.2 mph 20.7 mph N/A   Clear
12:37 PM 69.6 °F 32.7 °F 26% 30.19 in 10.0 mi ESE 11.5 mph 21.9 mph N/A   Clear
12:57 PM 70.3 °F 33.6 °F 26% 30.19 in 10.0 mi SE 9.2 mph 19.6 mph N/A   Clear
1:17 PM 71.1 °F 34.2 °F 26% 30.18 in 10.0 mi ESE 12.7 mph 18.4 mph N/A   Clear
1:37 PM 71.6 °F 34.3 °F 25% 30.18 in 10.0 mi ESE 12.7 mph 20.7 mph N/A   Clear
1:57 PM 71.8 °F 33.3 °F 24% 30.18 in 10.0 mi SE 11.5 mph 23.0 mph N/A   Clear
2:17 PM 72.0 °F 34.9 °F 26% 30.17 in 10.0 mi ESE 13.8 mph 24.2 mph N/A   Clear
2:37 PM 72.9 °F 35.6 °F 26% 30.17 in 10.0 mi SE 15.0 mph 18.4 mph N/A   Clear
2:56 PM 72.1 °F 34.9 °F 26% 30.16 in 10.0 mi SE 11.5 mph 17.3 mph N/A   Clear
3:17 PM 72.9 °F 35.1 °F 25% 30.16 in 10.0 mi SE 13.8 mph 24.2 mph N/A   Clear
3:37 PM 73.8 °F 36.1 °F 25% 30.15 in 10.0 mi ESE 15.0 mph 23.0 mph N/A   Clear
3:57 PM 74.3 °F 35.6 °F 24% 30.14 in 10.0 mi ESE 15.0 mph 27.6 mph N/A   Clear
4:17 PM 74.5 °F 35.6 °F 24% 30.13 in 10.0 mi SE 8.1 mph 17.3 mph N/A   Clear
4:37 PM 73.8 °F 33.6 °F 23% 30.13 in 10.0 mi SE 15.0 mph 23.0 mph N/A   Clear
4:56 PM 73.9 °F 33.6 °F 23% 30.13 in 10.0 mi ESE 9.2 mph 19.6 mph N/A   Clear
5:17 PM 74.3 °F 34.7 °F 24% 30.13 in 10.0 mi SE 16.1 mph 26.5 mph N/A   Clear
5:37 PM 74.1 °F 35.8 °F 25% 30.12 in 10.0 mi ESE 13.8 mph 25.3 mph N/A   Clear
5:57 PM 74.3 °F 36.7 °F 25% 30.12 in 10.0 mi SE 11.5 mph 20.7 mph N/A   Clear
6:17 PM 74.3 °F 38.1 °F 27% 30.12 in 10.0 mi ESE 9.2 mph 23.0 mph N/A   Clear
6:37 PM 73.0 °F 37.6 °F 28% 30.12 in 10.0 mi SE 13.8 mph 25.3 mph N/A   Clear
6:56 PM 72.5 °F 38.7 °F 29% 30.12 in 10.0 mi SE 8.1 mph - N/A   Clear
7:17 PM 72.0 °F 37.9 °F 29% 30.12 in 10.0 mi ESE 8.1 mph 20.7 mph N/A   Clear
7:37 PM 70.9 °F 38.5 °F 31% 30.12 in 10.0 mi ESE 11.5 mph 17.3 mph N/A   Clear
7:57 PM 69.6 °F 38.5 °F 32% 30.13 in 10.0 mi ESE 6.9 mph 17.3 mph N/A   Clear
8:17 PM 68.4 °F 39.0 °F 34% 30.13 in 10.0 mi ESE 6.9 mph 16.1 mph N/A   Clear
8:37 PM 67.3 °F 39.2 °F 36% 30.14 in 10.0 mi ESE 9.2 mph - N/A   Clear
8:57 PM 65.7 °F 40.3 °F 39% 30.15 in 10.0 mi ESE 8.1 mph - N/A   Clear
9:17 PM 65.1 °F 40.1 °F 40% 30.15 in 10.0 mi ESE 10.4 mph 16.1 mph N/A   Clear
9:37 PM 65.3 °F 39.9 °F 39% 30.15 in 10.0 mi East 11.5 mph 18.4 mph N/A   Clear
9:56 PM 65.3 °F 39.6 °F 39% 30.15 in 10.0 mi ESE 15.0 mph 20.7 mph N/A   Clear
10:17 PM 64.9 °F 39.4 °F 39% 30.16 in 10.0 mi ESE 15.0 mph 21.9 mph N/A   Clear
10:37 PM 63.9 °F 39.9 °F 41% 30.16 in 10.0 mi ESE 11.5 mph 17.3 mph N/A   Clear
10:56 PM 63.7 °F 40.1 °F 42% 30.16 in 10.0 mi ESE 9.2 mph 20.7 mph N/A   Clear
11:17 PM 62.8 °F 40.5 °F 44% 30.16 in 10.0 mi ESE 8.1 mph 18.4 mph N/A   Clear
11:37 PM 62.4 °F 40.5 °F 44% 30.17 in 10.0 mi ESE 11.5 mph 16.1 mph N/A   Clear
11:57 PM 61.7 °F 40.5 °F 46% 30.17 in 10.0 mi ESE 12.7 mph 16.1 mph N/A   Clear